createdAt,value
2023-05-11T00:01:53.674Z,47.55
2023-05-11T00:04:20.715Z,47.49
2023-05-11T00:06:47.803Z,47.42
2023-05-11T00:09:14.822Z,47.44
2023-05-11T00:11:41.929Z,47.44
2023-05-11T00:14:09.124Z,47.58
2023-05-11T00:16:37.442Z,47.70
2023-05-11T00:19:04.537Z,47.81
2023-05-11T00:21:32.536Z,48.10
2023-05-11T00:23:59.602Z,48.25
2023-05-11T00:26:26.944Z,48.30
2023-05-11T00:28:54.345Z,48.28
2023-05-11T00:31:21.447Z,48.33
2023-05-11T00:33:48.578Z,48.44
2023-05-11T00:36:15.658Z,48.83
2023-05-11T00:38:42.814Z,49.24
2023-05-11T00:41:10.032Z,49.35
2023-05-11T00:43:37.112Z,49.26
2023-05-11T00:46:04.089Z,49.19
2023-05-11T00:48:31.127Z,49.09
2023-05-11T00:51:01.900Z,48.85
2023-05-11T00:53:30.552Z,48.81
2023-05-11T00:55:59.627Z,48.64
2023-05-11T00:58:26.721Z,48.41
2023-05-11T01:00:54.007Z,48.11
2023-05-11T01:03:21.471Z,47.95
2023-05-11T01:06:17.331Z,47.71
2023-05-11T01:08:51.566Z,47.33
2023-05-11T01:11:37.744Z,47.10
2023-05-11T01:14:08.877Z,47.20
2023-05-11T01:16:37.332Z,46.90
2023-05-11T01:19:18.602Z,46.72
2023-05-11T01:21:45.746Z,46.59
2023-05-11T01:24:18.802Z,46.51
2023-05-11T01:26:55.584Z,46.58
2023-05-11T01:29:25.678Z,46.62
2023-05-11T01:31:55.495Z,46.77
2023-05-11T01:34:27.022Z,46.84
2023-05-11T01:36:58.350Z,46.70
2023-05-11T01:39:30.843Z,46.79
2023-05-11T01:41:57.945Z,46.75
2023-05-11T01:44:26.049Z,46.75
2023-05-11T01:46:53.010Z,46.74
2023-05-11T01:49:24.930Z,46.62
2023-05-11T01:51:51.946Z,46.61
2023-05-11T01:54:18.943Z,46.49
2023-05-11T01:56:45.947Z,46.49
2023-05-11T01:59:15.600Z,46.35
2023-05-11T02:01:42.786Z,46.19
2023-05-11T02:04:09.901Z,45.91
2023-05-11T02:06:38.290Z,45.49
2023-05-11T02:09:05.628Z,45.35
2023-05-11T02:11:33.592Z,45.11
2023-05-11T02:14:00.837Z,44.95
2023-05-11T02:16:28.665Z,44.76
2023-05-11T02:18:56.135Z,44.40
2023-05-11T02:21:23.236Z,44.29
2023-05-11T02:23:50.315Z,44.34
2023-05-11T02:26:17.367Z,44.53
2023-05-11T02:28:44.366Z,44.58
2023-05-11T02:31:19.418Z,44.94
2023-05-11T02:33:50.806Z,45.11
2023-05-11T02:36:22.462Z,45.14
2023-05-11T02:38:51.578Z,45.15
2023-05-11T02:41:22.403Z,44.93
2023-05-11T02:43:51.502Z,44.75
2023-05-11T02:46:22.012Z,44.63
2023-05-11T02:48:52.464Z,44.39
2023-05-11T02:51:21.169Z,44.15
2023-05-11T02:53:49.608Z,43.95
2023-05-11T02:56:16.602Z,43.72
2023-05-11T02:58:43.690Z,43.44
2023-05-11T03:01:20.187Z,43.24
2023-05-11T03:03:47.493Z,43.15
2023-05-11T03:06:15.524Z,43.21
2023-05-11T03:08:42.553Z,43.16
2023-05-11T03:11:10.101Z,43.25
2023-05-11T03:13:37.217Z,43.26
2023-05-11T03:16:05.039Z,43.32
2023-05-11T03:18:32.279Z,43.28
2023-05-11T03:20:59.762Z,43.27
2023-05-11T03:23:26.897Z,43.07
2023-05-11T03:25:56.742Z,43.15
2023-05-11T03:28:24.997Z,43.15
2023-05-11T03:31:01.240Z,43.17
2023-05-11T03:33:30.093Z,43.14
2023-05-11T03:36:00.880Z,43.19
2023-05-11T03:38:36.897Z,43.19
2023-05-11T03:41:04.691Z,43.14
2023-05-11T03:43:33.299Z,43.26
2023-05-11T03:46:01.851Z,43.49
2023-05-11T03:48:28.854Z,43.85
2023-05-11T03:50:56.470Z,44.15
2023-05-11T03:53:23.459Z,44.36
2023-05-11T03:55:53.057Z,44.55
2023-05-11T03:58:21.404Z,44.55
2023-05-11T04:00:48.502Z,44.48
2023-05-11T04:03:16.158Z,44.56
2023-05-11T04:05:43.387Z,44.93
2023-05-11T04:08:12.588Z,45.02
2023-05-11T04:10:39.598Z,44.95
2023-05-11T04:13:06.603Z,44.79
2023-05-11T04:15:33.655Z,44.63
2023-05-11T04:18:00.994Z,44.35
2023-05-11T04:20:28.574Z,44.11
2023-05-11T04:22:55.736Z,43.58
2023-05-11T04:25:24.003Z,43.30
2023-05-11T04:27:51.724Z,43.02
2023-05-11T04:30:21.164Z,42.24
2023-05-11T04:32:48.515Z,41.75
2023-05-11T04:35:16.747Z,41.64
2023-05-11T04:37:43.935Z,41.25
2023-05-11T04:40:11.691Z,40.78
2023-05-11T04:42:41.227Z,40.50
2023-05-11T04:45:13.365Z,40.37
2023-05-11T04:47:41.169Z,40.53
2023-05-11T04:50:09.116Z,40.35
2023-05-11T04:52:36.598Z,40.11
2023-05-11T04:55:04.220Z,39.74
2023-05-11T04:57:31.749Z,39.89
2023-05-11T04:59:58.930Z,40.12
2023-05-11T05:02:26.208Z,40.18
2023-05-11T05:04:53.260Z,40.35
2023-05-11T05:07:21.030Z,40.06
2023-05-11T05:09:48.168Z,40.10
2023-05-11T05:12:16.280Z,40.06
2023-05-11T05:14:43.290Z,39.79
2023-05-11T05:17:10.423Z,39.38
2023-05-11T05:19:39.147Z,39.21
2023-05-11T05:22:06.881Z,39.00
2023-05-11T05:24:35.243Z,38.69
2023-05-11T05:27:06.818Z,38.50
2023-05-11T05:29:34.159Z,38.61
2023-05-11T05:32:02.327Z,38.47
2023-05-11T05:34:29.527Z,38.41
2023-05-11T05:36:56.656Z,38.25
2023-05-11T05:39:24.162Z,38.11
2023-05-11T05:41:52.164Z,37.94
2023-05-11T05:44:19.653Z,38.04
2023-05-11T05:46:47.986Z,37.77
2023-05-11T05:49:15.121Z,37.52
2023-05-11T05:51:43.133Z,37.19
2023-05-11T05:54:11.571Z,36.73
2023-05-11T05:56:39.393Z,36.04
2023-05-11T05:59:09.352Z,35.44
2023-05-11T06:01:39.257Z,34.89
2023-05-11T06:04:07.157Z,34.94
2023-05-11T06:06:35.967Z,34.82
2023-05-11T06:09:07.215Z,34.78
2023-05-11T06:11:35.455Z,34.15
2023-05-11T06:14:04.942Z,33.01
2023-05-11T06:16:32.050Z,32.51
2023-05-11T06:19:00.208Z,32.48
2023-05-11T06:21:28.502Z,32.45
2023-05-11T06:23:56.771Z,32.31
2023-05-11T06:26:25.857Z,32.60
2023-05-11T06:28:54.479Z,32.55
2023-05-11T06:31:23.450Z,32.65
2023-05-11T06:33:51.046Z,32.56
2023-05-11T06:36:25.813Z,31.64
2023-05-11T06:38:53.010Z,30.96
2023-05-11T06:41:21.707Z,30.68
2023-05-11T06:43:48.879Z,30.50
2023-05-11T06:46:23.200Z,29.98
2023-05-11T06:49:05.452Z,29.31
2023-05-11T06:51:33.435Z,29.31
2023-05-11T06:54:03.927Z,28.51
2023-05-11T06:56:35.218Z,28.21
2023-05-11T06:59:03.420Z,28.24
2023-05-11T07:01:31.891Z,27.46
2023-05-11T07:03:59.707Z,27.01
2023-05-11T07:06:31.563Z,26.30
2023-05-11T07:09:00.774Z,24.82
2023-05-11T07:11:29.336Z,24.12
2023-05-11T07:14:04.381Z,23.82
2023-05-11T07:16:38.975Z,23.68
2023-05-11T07:19:06.789Z,23.38
2023-05-11T07:21:36.291Z,23.35
2023-05-11T07:24:04.220Z,23.42
2023-05-11T07:26:31.373Z,22.96
2023-05-11T07:28:58.398Z,23.10
2023-05-11T07:31:25.468Z,22.74
2023-05-11T07:33:53.494Z,22.61
2023-05-11T07:36:20.491Z,22.31
2023-05-11T07:38:49.706Z,21.56
2023-05-11T07:41:18.322Z,21.68
2023-05-11T07:43:45.297Z,22.01
2023-05-11T07:46:12.764Z,22.02
2023-05-11T07:48:40.525Z,21.24
2023-05-11T07:51:08.117Z,20.97
2023-05-11T07:53:37.166Z,21.09
2023-05-11T07:56:07.167Z,20.81
2023-05-11T07:58:34.356Z,20.63
2023-05-11T08:01:02.016Z,20.59
2023-05-11T08:03:29.238Z,19.89
2023-05-11T08:05:58.390Z,19.77
2023-05-11T08:08:26.209Z,19.74
2023-05-11T08:10:53.279Z,20.12
2023-05-11T08:13:20.287Z,19.42
2023-05-11T08:15:47.472Z,18.63
2023-05-11T08:18:14.780Z,17.93
2023-05-11T08:20:42.382Z,17.81
2023-05-11T08:23:11.659Z,18.21
2023-05-11T08:25:41.201Z,18.05
2023-05-11T08:28:08.385Z,17.89
2023-05-11T08:30:41.127Z,18.36
2023-05-11T08:33:29.160Z,18.53
2023-05-11T08:35:55.778Z,18.87
2023-05-11T08:38:22.911Z,19.18
2023-05-11T08:40:51.652Z,19.05
2023-05-11T08:43:19.261Z,18.74
2023-05-11T08:45:50.241Z,18.65
2023-05-11T08:48:21.439Z,18.64
2023-05-11T08:50:49.172Z,18.44
2023-05-11T08:53:21.082Z,18.50
2023-05-11T08:55:49.428Z,18.71
2023-05-11T09:01:30.341Z,18.33
2023-05-11T09:03:58.802Z,18.35
2023-05-11T09:06:35.381Z,18.52
2023-05-11T09:09:20.768Z,18.60
2023-05-11T09:12:03.587Z,18.56
2023-05-11T09:15:01.906Z,19.21
2023-05-11T09:17:35.044Z,19.20
2023-05-11T09:20:11.332Z,18.79
2023-05-11T09:22:55.468Z,18.00
2023-05-11T09:25:23.768Z,17.51
2023-05-11T09:27:51.524Z,17.69
2023-05-11T09:30:28.590Z,18.38
2023-05-11T09:33:10.407Z,18.31
2023-05-11T09:35:42.397Z,17.44
2023-05-11T09:38:11.632Z,17.40
2023-05-11T09:40:45.153Z,17.20
2023-05-11T09:43:30.300Z,16.97
2023-05-11T09:46:07.852Z,16.59
2023-05-11T09:48:35.659Z,16.92
2023-05-11T09:51:06.830Z,16.96
2023-05-11T09:53:35.693Z,16.87
2023-05-11T09:56:03.193Z,16.65
2023-05-11T09:58:49.895Z,16.72
2023-05-11T10:01:18.278Z,16.35
2023-05-11T10:03:50.285Z,16.45
2023-05-11T10:06:20.406Z,16.07
2023-05-11T10:08:49.467Z,16.26
2023-05-11T10:11:20.624Z,16.64
2023-05-11T10:13:49.952Z,16.79
2023-05-11T10:16:36.379Z,17.17
2023-05-11T10:19:04.222Z,17.79
2023-05-11T10:21:31.998Z,17.72
2023-05-11T10:23:59.926Z,17.91
2023-05-11T10:26:27.254Z,17.49
2023-05-11T10:28:55.079Z,17.37
2023-05-11T10:31:24.710Z,18.00
2023-05-11T10:33:52.482Z,18.24
2023-05-11T10:36:20.058Z,18.34
2023-05-11T10:38:47.475Z,18.45
2023-05-11T10:42:02.091Z,17.81
2023-05-11T10:44:45.016Z,17.71
2023-05-11T10:47:32.915Z,17.40
2023-05-11T10:50:22.370Z,17.66
2023-05-11T10:53:19.095Z,17.16
2023-05-11T10:55:55.630Z,17.15
2023-05-11T10:58:28.846Z,17.47
2023-05-11T11:01:18.169Z,17.65
2023-05-11T11:03:58.774Z,17.63
2023-05-11T11:06:34.085Z,17.68
2023-05-11T11:09:03.648Z,18.17
2023-05-11T11:14:30.215Z,18.38
2023-05-11T11:17:21.935Z,18.50
2023-05-11T11:19:49.827Z,18.09
2023-05-11T11:22:37.666Z,18.22
2023-05-11T11:25:09.496Z,18.24
2023-05-11T11:27:49.487Z,18.40
2023-05-11T11:30:17.751Z,18.31
2023-05-11T11:32:46.451Z,18.39
2023-05-11T11:35:40.064Z,18.42
2023-05-11T11:38:11.289Z,18.28
2023-05-11T11:43:24.647Z,17.46
2023-05-11T11:46:03.955Z,17.29
2023-05-11T11:48:36.349Z,17.62
2023-05-11T11:51:06.242Z,17.18
2023-05-11T11:53:36.916Z,16.97
2023-05-11T11:56:05.254Z,17.21
2023-05-11T11:58:46.451Z,17.39
2023-05-11T12:01:21.811Z,18.24
2023-05-11T12:04:05.349Z,17.90
2023-05-11T12:06:41.430Z,17.58
2023-05-11T12:09:14.947Z,17.42
2023-05-11T12:11:42.580Z,17.50
2023-05-11T12:14:10.705Z,17.69
2023-05-11T12:16:41.715Z,18.14
2023-05-11T12:19:09.966Z,17.51
2023-05-11T12:21:37.192Z,17.77
2023-05-11T12:24:05.627Z,17.90
2023-05-11T12:26:33.490Z,17.50
2023-05-11T12:29:09.953Z,17.98
2023-05-11T12:31:42.036Z,18.12
2023-05-11T12:34:16.854Z,18.71
2023-05-11T12:36:45.962Z,18.72
2023-05-11T12:39:23.655Z,18.66
2023-05-11T12:41:55.812Z,18.91
2023-05-11T12:44:25.255Z,18.91
2023-05-11T12:46:54.313Z,18.87
2023-05-11T12:49:30.434Z,18.33
2023-05-11T12:51:59.623Z,18.58
2023-05-11T12:54:39.028Z,18.46
2023-05-11T12:57:22.566Z,17.45
2023-05-11T12:59:49.867Z,17.01
2023-05-11T13:02:22.560Z,17.63
2023-05-11T13:04:50.078Z,17.62
2023-05-11T13:07:38.782Z,17.38
2023-05-11T13:10:08.971Z,17.35
2023-05-11T13:12:53.920Z,17.50
2023-05-11T13:15:24.270Z,17.98
2023-05-11T13:17:59.761Z,17.55
2023-05-11T13:20:37.259Z,17.62
2023-05-11T13:23:15.474Z,17.88
2023-05-11T13:25:46.700Z,17.95
2023-05-11T13:28:16.303Z,18.26
2023-05-11T13:30:45.893Z,18.81
2023-05-11T13:33:13.203Z,18.15
2023-05-11T13:35:42.039Z,18.09
2023-05-11T13:38:10.356Z,18.26
2023-05-11T13:40:39.009Z,18.16
2023-05-11T13:43:06.929Z,17.47
2023-05-11T13:45:36.808Z,17.26
2023-05-11T13:48:04.302Z,17.56
2023-05-11T13:50:33.148Z,17.43
2023-05-11T13:53:05.862Z,17.17
2023-05-11T13:55:32.953Z,17.05
2023-05-11T13:58:00.234Z,16.88
2023-05-11T14:00:30.582Z,17.32
2023-05-11T14:03:03.041Z,17.93
2023-05-11T14:05:30.390Z,17.58
2023-05-11T14:08:01.145Z,17.84
2023-05-11T14:10:30.993Z,17.33
2023-05-11T14:12:59.743Z,17.41
2023-05-11T14:15:32.087Z,17.74
2023-05-11T14:18:00.265Z,17.24
2023-05-11T14:20:28.599Z,17.02
2023-05-11T14:23:03.202Z,16.72
2023-05-11T14:25:38.815Z,16.53
2023-05-11T14:28:08.925Z,16.50
2023-05-11T14:30:38.647Z,16.23
2023-05-11T14:33:19.187Z,15.81
2023-05-11T14:35:54.223Z,15.08
2023-05-11T14:38:22.655Z,14.93
2023-05-11T14:41:00.140Z,14.90
2023-05-11T14:43:28.628Z,14.43
2023-05-11T14:46:02.636Z,13.94
2023-05-11T14:48:30.296Z,13.84
2023-05-11T14:51:32.910Z,13.28
2023-05-11T14:54:01.843Z,12.68
2023-05-11T14:56:30.122Z,12.50
2023-05-11T14:59:00.192Z,12.11
2023-05-11T15:01:29.393Z,11.75
2023-05-11T15:03:57.766Z,11.65
2023-05-11T15:06:25.324Z,11.38
2023-05-11T15:08:52.751Z,11.15
2023-05-11T15:11:21.639Z,11.08
2023-05-11T15:13:51.219Z,11.01
2023-05-11T15:16:19.593Z,10.87
2023-05-11T15:18:48.688Z,10.97
2023-05-11T15:21:16.567Z,10.77
2023-05-11T15:23:51.788Z,11.02
2023-05-11T15:26:44.007Z,10.91
2023-05-11T15:29:13.074Z,11.02
2023-05-11T15:31:41.252Z,10.82
2023-05-11T15:34:09.977Z,11.07
2023-05-11T15:39:26.061Z,10.42
2023-05-11T15:41:58.174Z,10.30
2023-05-11T15:44:42.667Z,10.73
2023-05-11T15:47:10.060Z,10.98
2023-05-11T15:49:38.755Z,11.35
2023-05-11T15:52:07.891Z,10.89
2023-05-11T15:54:37.627Z,10.67
2023-05-11T15:57:07.979Z,10.85
2023-05-11T15:59:38.419Z,11.15
2023-05-11T16:02:06.558Z,10.80
2023-05-11T16:04:39.425Z,10.74
2023-05-11T16:07:07.552Z,10.90
2023-05-11T16:09:35.304Z,10.70
2023-05-11T16:12:04.356Z,10.76
2023-05-11T16:14:42.793Z,11.03
2023-05-11T16:17:18.432Z,10.69
2023-05-11T16:19:59.365Z,10.61
2023-05-11T16:22:29.405Z,10.78
2023-05-11T16:25:02.965Z,10.92
2023-05-11T16:27:30.856Z,11.21
2023-05-11T16:29:58.984Z,11.21
2023-05-11T16:32:30.142Z,11.50
2023-05-11T16:34:58.412Z,12.02
2023-05-11T16:37:27.508Z,11.93
2023-05-11T16:39:55.474Z,12.21
2023-05-11T16:42:25.566Z,12.87
2023-05-11T16:44:52.801Z,13.49
2023-05-11T16:47:20.788Z,13.73
2023-05-11T16:49:48.230Z,13.80
2023-05-11T16:52:15.322Z,13.95
2023-05-11T16:54:42.373Z,14.51
2023-05-11T16:57:09.987Z,15.49
2023-05-11T16:59:37.130Z,15.84
2023-05-11T17:02:06.302Z,16.02
2023-05-11T17:04:33.508Z,16.41
2023-05-11T17:07:00.573Z,16.58
2023-05-11T17:09:29.288Z,16.97
2023-05-11T17:11:56.534Z,17.31
2023-05-11T17:14:23.631Z,17.69
2023-05-11T17:16:51.316Z,18.14
2023-05-11T17:19:18.597Z,18.57
2023-05-11T17:21:45.678Z,18.95
2023-05-11T17:24:12.978Z,19.67
2023-05-11T17:26:47.837Z,20.20
2023-05-11T17:29:19.291Z,20.57
2023-05-11T17:31:52.333Z,20.82
2023-05-11T17:34:21.005Z,21.00
2023-05-11T17:36:50.071Z,21.75
2023-05-11T17:39:19.428Z,23.34
2023-05-11T17:41:47.608Z,24.38
2023-05-11T17:44:15.777Z,26.01
2023-05-11T17:46:43.838Z,26.51
2023-05-11T17:49:12.483Z,27.14
2023-05-11T17:51:42.418Z,27.62
2023-05-11T17:54:11.206Z,27.90
2023-05-11T17:56:38.382Z,28.68
2023-05-11T17:59:05.993Z,29.29
2023-05-11T18:01:34.009Z,30.58
2023-05-11T18:04:01.236Z,31.27
2023-05-11T18:06:30.302Z,31.97
2023-05-11T18:08:59.341Z,32.54
2023-05-11T18:11:27.872Z,33.59
2023-05-11T18:13:55.000Z,34.55
2023-05-11T18:16:22.218Z,35.38
2023-05-11T18:18:49.257Z,36.07
2023-05-11T18:21:18.481Z,36.73
2023-05-11T18:24:06.789Z,37.19
2023-05-11T18:26:52.281Z,37.73
2023-05-11T18:29:22.178Z,38.22
2023-05-11T18:31:49.869Z,38.35
2023-05-11T18:34:17.014Z,38.64
2023-05-11T18:36:44.311Z,39.13
2023-05-11T18:39:11.355Z,39.55
2023-05-11T18:41:38.441Z,40.00
2023-05-11T18:44:05.589Z,40.58
2023-05-11T18:46:32.839Z,41.36
2023-05-11T18:48:59.950Z,42.12
2023-05-11T18:51:27.004Z,42.41
2023-05-11T18:53:54.127Z,42.77
2023-05-11T18:56:22.385Z,43.35
2023-05-11T18:58:50.630Z,43.86
2023-05-11T19:01:19.057Z,44.32
2023-05-11T19:03:46.321Z,44.50
2023-05-11T19:06:14.737Z,44.88
2023-05-11T19:12:12.414Z,45.50
2023-05-11T19:14:52.944Z,45.69
2023-05-11T19:17:43.005Z,46.16
2023-05-11T19:20:25.394Z,46.43
2023-05-11T19:23:12.394Z,46.78
2023-05-11T19:25:48.655Z,47.16
2023-05-11T19:28:31.063Z,47.26
2023-05-11T19:31:20.004Z,47.40
2023-05-11T19:33:54.485Z,47.82
2023-05-11T19:36:45.372Z,48.62
2023-05-11T19:39:23.339Z,50.79
2023-05-11T19:42:07.304Z,52.11
2023-05-11T19:44:59.527Z,52.11
2023-05-11T19:47:49.292Z,51.73
2023-05-11T19:53:23.082Z,51.04
2023-05-11T19:56:27.084Z,51.08
2023-05-11T19:59:16.693Z,51.35
2023-05-11T20:02:08.425Z,51.55
2023-05-11T20:04:46.618Z,51.60
2023-05-11T20:07:24.933Z,51.82
2023-05-11T20:09:57.413Z,51.82
2023-05-11T20:12:28.130Z,51.95
2023-05-11T20:14:56.095Z,51.84
2023-05-11T20:17:23.180Z,52.01
2023-05-11T20:19:51.583Z,52.04
2023-05-11T20:22:23.077Z,52.25
2023-05-11T20:24:51.863Z,52.26
2023-05-11T20:27:30.286Z,52.31
2023-05-11T20:29:57.715Z,52.53
2023-05-11T20:32:25.073Z,52.75
2023-05-11T20:34:52.398Z,53.04
2023-05-11T20:37:19.652Z,53.07
2023-05-11T20:39:48.402Z,53.22
2023-05-11T20:42:15.652Z,53.49
2023-05-11T20:44:42.964Z,53.53
2023-05-11T20:47:15.605Z,53.57
2023-05-11T20:49:42.896Z,53.58
2023-05-11T20:52:14.146Z,53.58
2023-05-11T20:54:42.564Z,53.64
2023-05-11T20:57:09.798Z,53.56
2023-05-11T21:02:07.123Z,53.45
2023-05-11T21:04:37.296Z,53.24
2023-05-11T21:07:07.319Z,52.99
2023-05-11T21:09:35.095Z,52.81
2023-05-11T21:12:11.824Z,52.63
2023-05-11T21:14:38.913Z,52.41
2023-05-11T21:17:06.138Z,52.42
2023-05-11T21:19:35.054Z,52.67
2023-05-11T21:22:02.206Z,52.88
2023-05-11T21:24:29.351Z,53.00
2023-05-11T21:26:56.442Z,53.18
2023-05-11T21:29:23.581Z,53.20
2023-05-11T21:31:50.716Z,53.19
2023-05-11T21:34:18.254Z,53.04
2023-05-11T21:36:45.922Z,53.00
2023-05-11T21:39:15.832Z,53.00
2023-05-11T21:41:44.159Z,52.93
2023-05-11T21:44:11.331Z,52.85
2023-05-11T21:46:38.567Z,52.81
2023-05-11T21:49:05.815Z,53.00
2023-05-11T21:51:33.882Z,52.94
2023-05-11T21:54:01.117Z,53.11
2023-05-11T21:56:28.865Z,53.27
2023-05-11T21:58:55.960Z,53.33
2023-05-11T22:01:23.181Z,53.46
2023-05-11T22:03:50.548Z,53.50
2023-05-11T22:06:17.697Z,53.63
2023-05-11T22:08:44.771Z,53.86
2023-05-11T22:11:12.119Z,53.90
2023-05-11T22:13:39.244Z,54.04
2023-05-11T22:16:06.633Z,53.89
2023-05-11T22:18:33.860Z,53.92
2023-05-11T22:21:01.088Z,53.94
2023-05-11T22:23:28.366Z,54.09
2023-05-11T22:25:55.783Z,54.12
2023-05-11T22:28:23.109Z,54.55
2023-05-11T22:30:50.206Z,54.86
2023-05-11T22:33:17.537Z,55.03
2023-05-11T22:35:46.354Z,55.16
2023-05-11T22:38:14.034Z,55.12
2023-05-11T22:40:41.494Z,54.93
2023-05-11T22:43:08.575Z,54.93
2023-05-11T22:45:35.812Z,54.77
2023-05-11T22:48:02.921Z,54.79
2023-05-11T22:50:30.172Z,54.73
2023-05-11T22:52:57.311Z,54.71
2023-05-11T22:55:25.287Z,54.81
2023-05-11T22:57:52.437Z,54.99
2023-05-11T23:00:21.121Z,55.00
2023-05-11T23:02:48.528Z,55.06
2023-05-11T23:05:15.975Z,55.09
2023-05-11T23:07:43.655Z,55.12
2023-05-11T23:10:11.016Z,55.24
2023-05-11T23:12:39.097Z,55.41
2023-05-11T23:15:09.889Z,55.45
2023-05-11T23:17:37.011Z,55.50
2023-05-11T23:20:04.849Z,55.55
2023-05-11T23:22:31.829Z,55.81
2023-05-11T23:25:00.528Z,55.91
2023-05-11T23:27:28.556Z,56.11
2023-05-11T23:29:55.571Z,56.22
2023-05-11T23:32:22.549Z,56.44
2023-05-11T23:34:51.603Z,56.58
2023-05-11T23:37:18.791Z,56.64
2023-05-11T23:39:45.739Z,56.59
2023-05-11T23:42:13.139Z,56.69
2023-05-11T23:44:40.950Z,56.72
2023-05-11T23:47:09.211Z,56.75
2023-05-11T23:49:36.347Z,56.79
2023-05-11T23:52:05.915Z,56.87
2023-05-11T23:54:33.157Z,56.98
2023-05-11T23:57:00.187Z,57.08
2023-05-11T23:59:28.758Z,57.14
